This is the latest recevied weather packets stored in our database for station/object K5WNG. If no packets are shown the sender has not sent any weather packets the latest 10 day(s).
| Time | Temp. | Humidity | Pressure | Rain* | Wind** | Luminosity | Snow |
|---|---|---|---|---|---|---|---|
| 1778076330 | 25° C | 87% | 1010.2 hPa | 0 mm | - | 200 W/m² | - |
| 1778076030 | 25° C | 87% | 1010.3 hPa | 0 mm | - | 189 W/m² | - |
| 1778075730 | 25° C | 87% | 1010.3 hPa | 0 mm | - | 173 W/m² | - |
| 1778075419 | 25° C | 88% | 1009.9 hPa | 0 mm | - | 177 W/m² | - |
| 1778075133 | 24.44° C | 88% | 1009.7 hPa | 0 mm | - | 177 W/m² | - |
| 1778074830 | 24.44° C | 89% | 1009.7 hPa | 0 mm | - | 163 W/m² | - |
| 1778074530 | 24.44° C | 90% | 1009.8 hPa | 0 mm | - | 137 W/m² | - |
| 1778074216 | 24.44° C | 90% | 1009.7 hPa | 0 mm | - | 131 W/m² | - |
| 1778073920 | 23.89° C | 90% | 1009.7 hPa | 0 mm | - | 126 W/m² | - |
| 1778073616 | 23.89° C | 91% | 1009.6 hPa | 0 mm | - | 128 W/m² | - |
| 1778073315 | 23.89° C | 92% | 1009.5 hPa | 0 mm | - | 122 W/m² | - |
| 1778073019 | 23.89° C | 92% | 1009.5 hPa | 0 mm | - | 100 W/m² | - |
| 1778072719 | 23.33° C | 92% | 1009.5 hPa | 0 mm | - | 77 W/m² | - |
| 1778072416 | 23.33° C | 93% | 1009.5 hPa | 0 mm | - | 65 W/m² | - |
| 1778072116 | 23.33° C | 93% | 1009.3 hPa | 0 mm | - | 63 W/m² | - |
| 1778071816 | 23.33° C | 94% | 1009.3 hPa | 0 mm | - | 60 W/m² | - |
| 1778071521 | 22.78° C | 94% | 1009.3 hPa | 0 mm | - | 52 W/m² | - |
| 1778071217 | 22.78° C | 95% | 1009.2 hPa | 0 mm | - | 49 W/m² | - |
| 1778070916 | 22.78° C | 95% | 1009.2 hPa | 0 mm | - | 40 W/m² | - |
| 1778070616 | 22.78° C | 96% | 1009.1 hPa | 0 mm | - | 31 W/m² | - |
| 1778070316 | 22.78° C | 96% | 1009.2 hPa | 0 mm | - | 24 W/m² | - |
| 1778070020 | 22.78° C | 96% | 1009.2 hPa | 0 mm | - | 24 W/m² | - |
| 1778069716 | 22.78° C | 95% | 1009.2 hPa | 0 mm | - | 19 W/m² | - |
| 1778069419 | 22.78° C | 95% | 1009.2 hPa | 0 mm | - | 15 W/m² | - |
| 1778069117 | 22.78° C | 95% | 1009.3 hPa | 0 mm | - | 13 W/m² | - |
* Rain latest hour (hover to see other rain measurements)
** Current wind speed in m/s (hover to see current wind gust speed)